Time;durP1;ratioP1;P1;durP2;ratioP2;P2;SDS_P1;SDS_P2;PMS_P1;PMS_P2;Temp;Humidity;BMP_temperature;BMP_pressure;BME280_temperature;BME280_humidity;BME280_pressure;Samples;Min_cycle;Max_cycle;Signal;HPM_P1;HPM_P2
2022/12/12 00:01:22;;;;;;;59.55;30.20;;;3.00;58.40;;;;;;5073389;28;20853;-71
2022/12/12 00:03:48;;;;;;;60.45;30.65;;;3.00;58.10;;;;;;5074161;28;20405;-73
2022/12/12 00:06:14;;;;;;;58.47;30.33;;;3.10;59.80;;;;;;5073702;28;20437;-71
2022/12/12 00:08:39;;;;;;;62.22;32.47;;;3.20;57.90;;;;;;5073999;28;20712;-73
2022/12/12 00:11:05;;;;;;;59.13;31.35;;;3.10;58.20;;;;;;5073056;28;20406;-72
2022/12/12 00:13:31;;;;;;;58.40;29.65;;;3.30;56.60;;;;;;5073930;28;20865;-72
2022/12/12 00:15:57;;;;;;;61.60;31.27;;;3.30;57.00;;;;;;5073506;28;20383;-72
2022/12/12 00:18:22;;;;;;;59.65;31.75;;;3.40;56.40;;;;;;5073846;28;20480;-72
2022/12/12 00:20:56;;;;;;;63.78;31.10;;;3.20;57.20;;;;;;5073384;28;20383;-72
2022/12/12 00:23:22;;;;;;;63.03;31.73;;;3.10;55.90;;;;;;5073912;28;20414;-72
2022/12/12 00:26:05;;;;;;;58.15;30.65;;;3.00;57.20;;;;;;5074249;28;20411;-73
2022/12/12 00:28:31;;;;;;;57.78;31.00;;;3.00;58.00;;;;;;5074698;28;20377;-73
2022/12/12 00:30:56;;;;;;;60.67;31.50;;;3.00;58.10;;;;;;5074079;28;20380;-73
2022/12/12 00:33:22;;;;;;;60.80;30.65;;;2.90;59.00;;;;;;5074049;28;20379;-73
2022/12/12 00:35:52;;;;;;;62.53;31.90;;;2.90;58.70;;;;;;5073396;28;20437;-73
2022/12/12 00:38:20;;;;;;;59.38;31.80;;;2.80;59.00;;;;;;5073252;28;20467;-72
2022/12/12 00:40:47;;;;;;;60.47;31.38;;;2.80;58.90;;;;;;5074054;28;20726;-73
2022/12/12 00:43:13;;;;;;;63.20;31.67;;;2.80;59.60;;;;;;5071077;28;20457;-72
2022/12/12 00:45:38;;;;;;;59.42;31.52;;;2.70;59.90;;;;;;5074445;28;20857;-72
2022/12/12 00:48:05;;;;;;;58.70;31.00;;;2.90;59.80;;;;;;5074037;28;20388;-72
2022/12/12 00:50:32;;;;;;;55.53;30.15;;;2.80;59.30;;;;;;5075779;28;20857;-72
2022/12/12 00:52:57;;;;;;;57.38;29.35;;;2.80;60.50;;;;;;5075717;28;20391;-70
2022/12/12 00:55:24;;;;;;;59.42;31.08;;;2.80;59.50;;;;;;5073460;28;20384;-70
2022/12/12 00:57:50;;;;;;;55.58;29.65;;;2.80;60.20;;;;;;5071085;28;20794;-72
2022/12/12 01:00:16;;;;;;;58.77;31.43;;;2.70;60.20;;;;;;5073031;28;20383;-72
2022/12/12 01:02:41;;;;;;;55.80;30.42;;;2.70;60.40;;;;;;5071695;28;20459;-72
2022/12/12 01:05:07;;;;;;;58.22;31.23;;;2.80;59.60;;;;;;5072520;28;20517;-71
2022/12/12 01:07:33;;;;;;;58.40;30.70;;;2.70;60.20;;;;;;5072990;28;20529;-72
2022/12/12 01:09:58;;;;;;;53.23;30.67;;;2.70;60.90;;;;;;5072082;28;20392;-72
2022/12/12 01:12:24;;;;;;;55.77;30.83;;;2.70;60.90;;;;;;5071652;28;20379;-71
2022/12/12 01:14:50;;;;;;;52.85;29.13;;;2.70;61.00;;;;;;5072249;28;20877;-72
2022/12/12 01:17:15;;;;;;;58.92;29.85;;;2.70;61.00;;;;;;5072082;28;20818;-73
2022/12/12 01:19:41;;;;;;;55.35;29.02;;;2.70;60.80;;;;;;5071508;28;20386;-70
2022/12/12 01:22:06;;;;;;;53.30;29.20;;;2.80;60.70;;;;;;5071957;28;20386;-72
2022/12/12 01:24:32;;;;;;;56.08;29.73;;;2.80;60.10;;;;;;5072447;28;20391;-72
2022/12/12 01:26:57;;;;;;;56.73;29.97;;;2.80;59.80;;;;;;5071867;28;20406;-72
2022/12/12 01:29:23;;;;;;;57.33;29.27;;;2.80;60.10;;;;;;5071730;28;20387;-72
2022/12/12 01:31:48;;;;;;;53.30;29.40;;;2.80;59.50;;;;;;5071297;28;20376;-73
2022/12/12 01:34:14;;;;;;;56.27;29.33;;;2.80;59.10;;;;;;5071784;28;20876;-72
2022/12/12 01:36:39;;;;;;;52.23;28.00;;;2.70;59.70;;;;;;5071575;28;20375;-73
2022/12/12 01:39:05;;;;;;;56.80;29.70;;;2.70;60.10;;;;;;5071545;28;20399;-72
2022/12/12 01:41:31;;;;;;;58.57;29.63;;;2.70;59.90;;;;;;5071070;28;20415;-72
2022/12/12 01:44:00;;;;;;;51.50;29.42;;;2.70;60.60;;;;;;5071819;28;20887;-72
2022/12/12 01:46:32;;;;;;;54.65;29.80;;;2.70;61.00;;;;;;5071784;28;20407;-73
2022/12/12 01:49:04;;;;;;;54.63;28.75;;;2.60;61.30;;;;;;5071997;28;20375;-73
2022/12/12 01:51:30;;;;;;;53.40;28.90;;;2.50;61.80;;;;;;5071259;28;20452;-71
2022/12/12 01:54:07;;;;;;;56.87;29.90;;;2.40;62.80;;;;;;5071214;28;20387;-71
2022/12/12 01:56:34;;;;;;;56.50;31.65;;;2.30;62.60;;;;;;5071274;28;20418;-72
2022/12/12 01:59:04;;;;;;;52.13;29.40;;;2.30;62.80;;;;;;5071195;28;20453;-71
2022/12/12 02:01:30;;;;;;;52.00;29.88;;;2.20;65.10;;;;;;5070633;28;20979;-72
2022/12/12 02:03:58;;;;;;;58.55;30.50;;;2.10;67.00;;;;;;5071164;28;20434;-70
2022/12/12 02:06:27;;;;;;;58.78;29.00;;;2.00;67.90;;;;;;5071214;28;20762;-71
2022/12/12 02:08:56;;;;;;;57.90;30.73;;;1.90;69.30;;;;;;5070595;28;20442;-71
2022/12/12 02:11:22;;;;;;;53.53;28.67;;;1.70;70.20;;;;;;5070340;28;20376;-71
2022/12/12 02:13:49;;;;;;;63.27;32.77;;;1.70;71.40;;;;;;5071201;28;20437;-71
2022/12/12 02:16:36;;;;;;;52.63;29.73;;;1.50;72.70;;;;;;5071156;28;20388;-72
2022/12/12 02:19:35;;;;;;;58.40;30.00;;;1.40;74.90;;;;;;5070926;28;20413;-72
2022/12/12 02:22:04;;;;;;;60.97;30.42;;;1.40;77.10;;;;;;5069319;28;20400;-71
2022/12/12 02:24:46;;;;;;;58.00;29.87;;;1.30;78.00;;;;;;5070948;28;20413;-71
2022/12/12 02:27:46;;;;;;;58.30;31.48;;;1.40;79.40;;;;;;5070722;28;20498;-71
2022/12/12 02:30:27;;;;;;;57.95;29.88;;;1.40;80.30;;;;;;5071039;28;20391;-71
2022/12/12 02:33:07;;;;;;;58.17;31.13;;;1.60;81.70;;;;;;5070327;28;20364;-71
2022/12/12 02:36:00;;;;;;;57.28;30.65;;;1.70;76.90;;;;;;5071031;28;20462;-71
2022/12/12 02:38:32;;;;;;;58.13;30.80;;;1.60;77.50;;;;;;5071086;28;20411;-71
2022/12/12 02:41:25;;;;;;;58.05;30.75;;;1.50;78.30;;;;;;5070081;28;20391;-72
2022/12/12 02:44:06;;;;;;;58.47;31.55;;;1.40;79.20;;;;;;5070508;28;20368;-72
2022/12/12 02:46:44;;;;;;;56.22;30.17;;;1.30;80.50;;;;;;5070630;28;20392;-72
2022/12/12 02:49:26;;;;;;;57.25;30.38;;;1.30;81.70;;;;;;5070562;28;20706;-72
2022/12/12 02:51:53;;;;;;;57.35;31.17;;;1.30;82.20;;;;;;5070220;28;20860;-72
2022/12/12 02:54:20;;;;;;;56.47;29.87;;;1.30;82.30;;;;;;5069136;28;20445;-71
2022/12/12 02:56:55;;;;;;;62.63;30.60;;;1.30;82.30;;;;;;5070374;28;20479;-71
2022/12/12 02:59:36;;;;;;;62.65;30.08;;;1.30;82.20;;;;;;5070345;28;20462;-71
2022/12/12 03:02:30;;;;;;;64.72;32.40;;;1.40;81.40;;;;;;5069824;28;20865;-71
2022/12/12 03:08:20;;;;;;;57.45;29.20;;;1.60;79.40;;;;;;5074286;28;20403;-71
2022/12/12 03:11:00;;;;;;;55.25;30.52;;;1.70;78.10;;;;;;5074756;28;20380;-71
2022/12/12 03:13:46;;;;;;;58.23;31.07;;;1.80;76.90;;;;;;5073331;28;20899;-72
2022/12/12 03:16:54;;;;;;;57.25;29.48;;;1.90;76.00;;;;;;5074824;28;20710;-71
2022/12/12 03:19:25;;;;;;;58.05;31.25;;;1.90;74.80;;;;;;5052837;28;20441;-72
2022/12/12 03:21:58;;;;;;;57.70;29.48;;;2.00;73.30;;;;;;5074377;28;20390;-72
2022/12/12 03:24:45;;;;;;;55.55;29.00;;;2.00;72.70;;;;;;5077849;28;20789;-72
2022/12/12 03:27:22;;;;;;;52.63;28.95;;;2.00;72.40;;;;;;5074862;28;20403;-71
2022/12/12 03:30:01;;;;;;;55.43;30.70;;;2.00;73.20;;;;;;5074245;28;20408;-71
2022/12/12 03:32:45;;;;;;;55.95;30.10;;;2.00;73.60;;;;;;5073695;28;20420;-72
2022/12/12 03:35:27;;;;;;;52.72;29.25;;;2.00;73.50;;;;;;5074257;28;20372;-72
2022/12/12 03:38:00;;;;;;;49.47;27.42;;;2.10;73.20;;;;;;5073673;28;20384;-71
2022/12/12 03:40:38;;;;;;;55.42;29.73;;;2.40;70.20;;;;;;5074105;28;20391;-72
2022/12/12 03:43:09;;;;;;;57.83;30.00;;;2.30;68.80;;;;;;5085550;28;20375;-71
2022/12/12 03:45:58;;;;;;;52.00;29.23;;;2.20;69.10;;;;;;5086083;28;20478;-72
2022/12/12 03:48:29;;;;;;;53.50;29.10;;;2.20;69.70;;;;;;5073331;28;20765;-71
2022/12/12 03:51:03;;;;;;;54.88;28.42;;;2.30;70.40;;;;;;5073256;28;20467;-71
2022/12/12 03:53:32;;;;;;;56.85;29.88;;;2.40;70.00;;;;;;5073720;28;20463;-71
2022/12/12 03:56:24;;;;;;;53.45;29.27;;;2.30;69.30;;;;;;5073568;28;20384;-72
2022/12/12 03:59:01;;;;;;;52.40;29.30;;;2.40;68.80;;;;;;5069025;28;20486;-72
2022/12/12 04:01:38;;;;;;;52.10;29.23;;;2.30;68.70;;;;;;5072810;28;20410;-72
2022/12/12 04:04:28;;;;;;;49.67;28.08;;;2.30;69.10;;;;;;5073587;28;20790;-72
2022/12/12 04:06:59;;;;;;;54.53;29.60;;;2.40;69.60;;;;;;5073355;28;20834;-71
2022/12/12 04:15:27;;;;;;;53.03;29.27;;;2.20;70.00;;;;;;5073784;28;20785;-72
2022/12/12 04:18:32;;;;;;;52.97;28.85;;;2.30;69.00;;;;;;5073197;28;20394;-72
2022/12/12 04:24:18;;;;;;;50.63;28.88;;;2.20;70.10;;;;;;5073179;28;20737;-72
2022/12/12 04:26:55;;;;;;;50.88;28.20;;;2.20;70.70;;;;;;5073371;28;20502;-72
2022/12/12 04:29:27;;;;;;;52.33;28.45;;;2.20;70.80;;;;;;5072976;28;20368;-72
2022/12/12 04:31:59;;;;;;;57.03;30.02;;;2.10;71.00;;;;;;5072256;28;20714;-72
2022/12/12 04:34:59;;;;;;;52.95;29.33;;;2.20;71.10;;;;;;5073128;28;20399;-73
2022/12/12 04:37:31;;;;;;;51.67;28.10;;;2.20;71.00;;;;;;5063770;28;20435;-72
2022/12/12 04:40:00;;;;;;;50.67;27.50;;;2.20;71.00;;;;;;5073207;28;20396;-72
2022/12/12 04:42:31;;;;;;;56.33;29.80;;;2.20;70.90;;;;;;5078347;28;20411;-72
2022/12/12 04:45:04;;;;;;;51.77;29.70;;;2.20;70.70;;;;;;5082622;28;20371;-71
2022/12/12 04:47:30;;;;;;;50.35;28.35;;;2.20;71.60;;;;;;5074254;28;20878;-72
2022/12/12 04:49:58;;;;;;;53.05;28.75;;;2.20;71.80;;;;;;5072494;28;20380;-71
2022/12/12 04:52:24;;;;;;;57.65;29.55;;;2.30;72.40;;;;;;5072240;28;20845;-71
2022/12/12 04:55:12;;;;;;;54.22;28.77;;;2.30;71.80;;;;;;5072484;28;20506;-71
2022/12/12 04:57:45;;;;;;;52.40;28.70;;;2.30;71.20;;;;;;5072438;28;20600;-72
2022/12/12 05:00:12;;;;;;;50.65;28.63;;;2.30;71.10;;;;;;5072786;28;20398;-72
2022/12/12 05:03:15;;;;;;;51.85;29.23;;;2.30;71.30;;;;;;5071990;28;20380;-72
2022/12/12 05:05:52;;;;;;;50.28;26.75;;;2.30;71.40;;;;;;5070867;28;20548;-72
2022/12/12 05:08:26;;;;;;;55.10;29.85;;;2.20;71.30;;;;;;5072209;28;20429;-71
2022/12/12 05:10:59;;;;;;;51.43;28.33;;;2.20;71.70;;;;;;5072070;28;20899;-72
2022/12/12 05:13:29;;;;;;;49.83;27.60;;;2.10;72.20;;;;;;5072929;28;20521;-72
2022/12/12 05:15:56;;;;;;;47.43;27.30;;;2.00;72.50;;;;;;5086497;28;20372;-72
2022/12/12 05:18:22;;;;;;;47.95;27.35;;;2.00;73.80;;;;;;5094405;28;20399;-72
2022/12/12 05:20:48;;;;;;;47.28;26.48;;;1.90;73.20;;;;;;5093622;28;20380;-71
2022/12/12 05:23:14;;;;;;;46.55;26.63;;;1.90;73.50;;;;;;5083327;28;20712;-71
2022/12/12 05:25:40;;;;;;;48.28;26.33;;;1.80;72.90;;;;;;5072536;28;20459;-72
2022/12/12 05:28:06;;;;;;;52.87;27.80;;;1.80;72.20;;;;;;5072341;28;20394;-72
2022/12/12 05:30:31;;;;;;;50.10;27.10;;;1.70;72.80;;;;;;5070610;28;20386;-72
2022/12/12 05:32:57;;;;;;;48.38;27.75;;;1.60;73.60;;;;;;5071681;28;20813;-72
2022/12/12 05:35:23;;;;;;;52.20;28.30;;;1.50;75.10;;;;;;5072498;28;20384;-72
2022/12/12 05:37:49;;;;;;;50.00;26.75;;;1.40;75.30;;;;;;5071840;28;20730;-72
2022/12/12 05:40:15;;;;;;;47.92;26.77;;;1.30;77.30;;;;;;5072090;28;20391;-71
2022/12/12 05:42:40;;;;;;;51.50;27.48;;;1.10;77.60;;;;;;5071639;28;20387;-71
2022/12/12 05:45:07;;;;;;;50.13;28.15;;;1.00;78.80;;;;;;5071681;28;20419;-73
2022/12/12 05:47:33;;;;;;;47.78;26.27;;;0.90;80.70;;;;;;5074502;28;20387;-71
2022/12/12 05:49:59;;;;;;;44.45;25.73;;;0.80;81.40;;;;;;5072284;28;20403;-71
2022/12/12 05:52:26;;;;;;;48.57;27.10;;;0.70;82.40;;;;;;5072097;28;20388;-72
2022/12/12 05:54:52;;;;;;;50.00;27.13;;;0.60;82.80;;;;;;5075590;28;20758;-71
2022/12/12 05:57:17;;;;;;;53.85;29.05;;;0.50;83.80;;;;;;5076529;28;20384;-72
2022/12/12 05:59:44;;;;;;;50.30;26.03;;;0.50;84.70;;;;;;5071315;28;20437;-72
2022/12/12 06:02:10;;;;;;;52.30;26.67;;;0.50;85.90;;;;;;5071038;28;20948;-71
2022/12/12 06:04:35;;;;;;;51.35;25.65;;;0.40;86.90;;;;;;5070747;28;20384;-72
2022/12/12 06:07:01;;;;;;;47.38;26.45;;;0.30;87.90;;;;;;5071619;28;20411;-72
2022/12/12 06:09:26;;;;;;;53.73;27.23;;;0.30;89.50;;;;;;5072847;28;20457;-71
2022/12/12 06:11:52;;;;;;;51.10;29.07;;;0.40;90.70;;;;;;5071097;28;20378;-71
2022/12/12 06:14:18;;;;;;;52.20;27.63;;;0.30;91.20;;;;;;5071376;28;20414;-72
2022/12/12 06:16:43;;;;;;;45.50;26.27;;;0.30;92.50;;;;;;5071411;28;20968;-72
2022/12/12 06:19:09;;;;;;;61.35;29.75;;;0.40;92.70;;;;;;5070814;28;20406;-73
2022/12/12 06:21:34;;;;;;;49.22;27.10;;;0.30;91.90;;;;;;5072173;28;20435;-72
2022/12/12 06:24:00;;;;;;;51.53;27.10;;;0.30;91.80;;;;;;5079602;28;20467;-72
2022/12/12 06:26:25;;;;;;;46.30;26.43;;;0.30;91.60;;;;;;5078548;28;20451;-73
2022/12/12 06:28:51;;;;;;;47.57;26.13;;;0.30;91.90;;;;;;5075949;28;20427;-72
2022/12/12 06:31:17;;;;;;;55.38;28.00;;;0.30;92.50;;;;;;5072266;28;20380;-72
2022/12/12 06:33:43;;;;;;;53.17;27.70;;;0.40;92.60;;;;;;5070775;28;20400;-72
2022/12/12 06:36:15;;;;;;;46.60;26.13;;;0.40;92.80;;;;;;5071647;28;20387;-71
2022/12/12 06:38:41;;;;;;;47.25;24.45;;;0.40;92.90;;;;;;5071564;28;20395;-72
2022/12/12 06:41:09;;;;;;;45.78;25.40;;;0.60;92.60;;;;;;5069465;28;20398;-72
2022/12/12 06:43:34;;;;;;;46.65;26.17;;;0.60;91.20;;;;;;5070909;28;20391;-72
2022/12/12 06:46:05;;;;;;;49.53;26.77;;;0.50;90.90;;;;;;5071006;28;20761;-73
2022/12/12 06:48:32;;;;;;;45.50;24.70;;;0.60;91.30;;;;;;5069555;28;20404;-72
2022/12/12 06:50:59;;;;;;;47.10;24.92;;;0.70;90.60;;;;;;5070389;28;20382;-71
2022/12/12 06:53:25;;;;;;;45.13;24.40;;;0.70;90.50;;;;;;5070902;28;20437;-73
2022/12/12 06:55:51;;;;;;;48.13;25.27;;;0.80;89.00;;;;;;5071180;28;20859;-72
2022/12/12 06:58:16;;;;;;;39.90;22.40;;;0.80;88.30;;;;;;5069930;28;20636;-72
2022/12/12 07:00:42;;;;;;;44.37;25.23;;;0.90;86.90;;;;;;5071392;28;20379;-73
2022/12/12 07:03:10;;;;;;;47.97;25.90;;;0.90;85.50;;;;;;5070037;28;20491;-71
2022/12/12 07:05:36;;;;;;;40.28;23.20;;;0.90;84.90;;;;;;5070798;28;20380;-70
2022/12/12 07:08:01;;;;;;;45.60;23.33;;;1.00;84.40;;;;;;5070849;28;20845;-72
2022/12/12 07:10:29;;;;;;;43.33;23.50;;;1.00;83.50;;;;;;5070673;28;20756;-72
2022/12/12 07:12:55;;;;;;;38.78;22.00;;;1.00;82.30;;;;;;5070715;28;20465;-71
2022/12/12 07:15:21;;;;;;;39.40;21.88;;;1.00;82.30;;;;;;5070798;28;20379;-72
2022/12/12 07:17:49;;;;;;;42.55;23.38;;;1.10;81.30;;;;;;5070665;28;20407;-72
2022/12/12 07:20:15;;;;;;;36.63;21.63;;;1.20;79.20;;;;;;5071043;28;20387;-72
2022/12/12 07:22:41;;;;;;;38.90;21.20;;;1.20;78.40;;;;;;5070479;28;20398;-71
2022/12/12 07:25:07;;;;;;;39.25;21.30;;;1.10;77.70;;;;;;5071348;28;20411;-71
2022/12/12 07:27:33;;;;;;;37.75;21.73;;;1.20;75.80;;;;;;5071259;28;20434;-72
2022/12/12 07:29:59;;;;;;;40.35;22.00;;;1.10;74.80;;;;;;5070860;28;20383;-71
2022/12/12 07:32:24;;;;;;;36.73;20.13;;;1.10;74.90;;;;;;5069515;28;20392;-72
2022/12/12 07:34:50;;;;;;;35.90;21.20;;;1.20;72.40;;;;;;5070689;28;20387;-73
2022/12/12 07:37:15;;;;;;;41.28;21.15;;;1.10;73.70;;;;;;5070913;28;20809;-73
2022/12/12 07:39:41;;;;;;;35.17;20.30;;;1.00;73.30;;;;;;5070608;28;20483;-73
2022/12/12 07:42:07;;;;;;;34.30;20.95;;;0.90;74.00;;;;;;5070033;28;20388;-72
2022/12/12 07:44:32;;;;;;;35.93;19.20;;;0.80;74.40;;;;;;5070717;28;20384;-72
2022/12/12 07:46:58;;;;;;;40.20;21.40;;;0.80;74.90;;;;;;5070601;28;20908;-72
2022/12/12 07:49:24;;;;;;;34.47;20.60;;;0.70;76.20;;;;;;5069313;28;20487;-72
2022/12/12 07:51:49;;;;;;;35.13;19.65;;;0.60;76.70;;;;;;5070874;28;20390;-72
2022/12/12 07:54:15;;;;;;;42.10;21.50;;;0.50;77.90;;;;;;5074342;28;20379;-71
2022/12/12 07:56:41;;;;;;;37.03;20.95;;;0.70;79.60;;;;;;5072901;28;20951;-71
2022/12/12 07:59:06;;;;;;;38.70;21.60;;;0.60;79.20;;;;;;5074431;28;20391;-73
2022/12/12 08:01:32;;;;;;;41.30;22.23;;;0.60;79.60;;;;;;5073913;28;20376;-72
2022/12/12 08:03:58;;;;;;;37.67;20.67;;;0.60;80.50;;;;;;5073077;28;20423;-72
2022/12/12 08:06:24;;;;;;;36.73;21.23;;;0.60;81.80;;;;;;5074696;28;20456;-72
2022/12/12 08:08:51;;;;;;;41.30;20.20;;;0.60;81.10;;;;;;5074958;28;20376;-72
2022/12/12 08:11:21;;;;;;;43.40;22.77;;;0.60;80.30;;;;;;5075286;28;20379;-72
2022/12/12 08:13:47;;;;;;;35.20;20.60;;;0.50;80.10;;;;;;5074757;28;20384;-73
2022/12/12 08:16:24;;;;;;;47.97;22.17;;;0.50;80.30;;;;;;5075342;28;20799;-72
2022/12/12 08:18:53;;;;;;;38.15;21.80;;;0.50;80.10;;;;;;5075060;28;20474;-73
2022/12/12 08:21:18;;;;;;;43.93;20.93;;;0.50;80.40;;;;;;5073472;28;20441;-71
2022/12/12 08:23:44;;;;;;;37.25;19.27;;;0.50;80.70;;;;;;5086036;28;20386;-75
2022/12/12 08:26:13;;;;;;;35.25;19.45;;;0.60;80.50;;;;;;5075998;28;20403;-73
2022/12/12 08:28:48;;;;;;;40.50;20.08;;;0.60;79.90;;;;;;5082705;28;20396;-71
2022/12/12 08:31:15;;;;;;;36.58;20.13;;;0.60;78.80;;;;;;5073267;28;20402;-71
2022/12/12 08:33:41;;;;;;;38.47;20.90;;;0.60;77.90;;;;;;5075784;28;20434;-71
2022/12/12 08:36:17;;;;;;;42.72;21.30;;;0.60;77.50;;;;;;5085317;28;20433;-71
2022/12/12 08:38:43;;;;;;;41.30;22.83;;;0.70;78.00;;;;;;5080892;22;21590;-76
2022/12/12 08:41:10;;;;;;;42.13;21.93;;;0.80;77.30;;;;;;5046567;28;20826;-77
2022/12/12 08:43:37;;;;;;;40.53;20.27;;;0.80;78.20;;;;;;5048886;28;20403;-76
2022/12/12 08:46:03;;;;;;;42.15;22.30;;;0.90;78.00;;;;;;5046498;28;20407;-75
2022/12/12 08:48:29;;;;;;;41.90;22.58;;;1.00;76.30;;;;;;5043690;28;20759;-76
2022/12/12 08:50:56;;;;;;;38.00;20.75;;;1.00;75.80;;;;;;5037996;28;20394;-76
2022/12/12 08:53:22;;;;;;;49.00;22.60;;;1.00;76.50;;;;;;5036266;28;20391;-77
2022/12/12 08:55:48;;;;;;;37.53;20.67;;;1.10;77.30;;;;;;5034981;28;20407;-77
2022/12/12 08:58:14;;;;;;;32.60;18.45;;;1.20;76.90;;;;;;5037630;28;20461;-74
2022/12/12 09:00:39;;;;;;;30.63;16.87;;;2.40;76.10;;;;;;5037081;28;20449;-76
2022/12/12 09:03:05;;;;;;;31.77;17.70;;;3.50;56.30;;;;;;5036192;28;20410;-79
2022/12/12 09:05:30;;;;;;;30.63;17.80;;;3.70;48.50;;;;;;5041224;28;20486;-81
2022/12/12 09:07:58;;;;;;;32.20;17.20;;;3.30;47.10;;;;;;5038083;28;20505;-76
2022/12/12 09:10:24;;;;;;;40.03;19.70;;;2.80;49.80;;;;;;5040111;28;20387;-75
2022/12/12 09:12:49;;;;;;;35.65;19.50;;;2.40;52.20;;;;;;5035876;28;20389;-76
2022/12/12 09:15:15;;;;;;;33.47;18.10;;;2.20;55.70;;;;;;5038281;28;20385;-72
2022/12/12 09:17:41;;;;;;;39.67;22.13;;;2.20;56.50;;;;;;5035433;28;20823;-72
2022/12/12 09:20:07;;;;;;;37.50;17.50;;;2.40;57.30;;;;;;5035588;28;20383;-73
2022/12/12 09:22:32;;;;;;;34.72;18.35;;;2.40;53.80;;;;;;5034934;28;20411;-73
2022/12/12 09:24:59;;;;;;;30.83;17.90;;;2.20;53.80;;;;;;5034426;28;20451;-73
2022/12/12 09:27:24;;;;;;;32.95;19.42;;;2.10;54.70;;;;;;5034154;28;20475;-73
2022/12/12 09:29:50;;;;;;;34.37;18.20;;;2.00;56.60;;;;;;5032879;28;20502;-74
2022/12/12 09:32:15;;;;;;;32.80;17.50;;;2.10;58.10;;;;;;5033434;28;20389;-75
2022/12/12 09:34:41;;;;;;;33.03;18.20;;;2.10;56.40;;;;;;5034570;28;20399;-75
2022/12/12 09:37:06;;;;;;;33.75;18.73;;;2.00;55.60;;;;;;5034550;28;20391;-75
2022/12/12 09:39:32;;;;;;;34.45;17.90;;;2.10;55.10;;;;;;5035201;28;20398;-74
2022/12/12 09:42:16;;;;;;;32.53;17.07;;;2.10;53.60;;;;;;5035518;28;20521;-76
2022/12/12 09:44:42;;;;;;;34.75;19.52;;;2.00;54.40;;;;;;5037716;28;20387;-75
2022/12/12 09:47:15;;;;;;;30.05;16.80;;;2.20;56.80;;;;;;5034803;28;20501;-76
2022/12/12 09:49:45;;;;;;;33.08;17.58;;;2.50;53.30;;;;;;5036180;28;20398;-76
2022/12/12 09:52:43;;;;;;;31.42;17.38;;;2.40;50.80;;;;;;5035989;28;20399;-74
2022/12/12 09:55:25;;;;;;;35.67;18.05;;;2.40;52.40;;;;;;5012183;28;20415;-75
2022/12/12 09:58:05;;;;;;;34.15;19.67;;;2.30;53.90;;;;;;5031758;28;20395;-74
2022/12/12 10:00:35;;;;;;;33.90;18.35;;;2.40;54.10;;;;;;5031853;28;20490;-74
2022/12/12 10:03:15;;;;;;;34.10;17.83;;;2.40;52.60;;;;;;5031971;28;20494;-74
2022/12/12 10:06:04;;;;;;;32.70;18.80;;;2.30;52.20;;;;;;5033231;28;20399;-74
2022/12/12 10:08:44;;;;;;;30.50;17.45;;;2.30;51.90;;;;;;5031448;28;20387;-75
2022/12/12 10:14:01;;;;;;;39.33;19.48;;;2.20;50.40;;;;;;5032328;28;20398;-74
2022/12/12 10:16:29;;;;;;;30.33;16.80;;;2.30;51.70;;;;;;5031860;28;20474;-74
2022/12/12 10:19:06;;;;;;;38.63;19.45;;;2.40;51.80;;;;;;5032054;28;20391;-75
2022/12/12 10:21:33;;;;;;;31.88;17.70;;;2.50;52.00;;;;;;5032307;28;20470;-75
2022/12/12 10:24:17;;;;;;;34.80;18.55;;;2.50;49.60;;;;;;5043430;28;20384;-74
2022/12/12 10:26:43;;;;;;;35.28;18.23;;;2.70;50.50;;;;;;5048577;28;20488;-74
2022/12/12 10:29:21;;;;;;;31.13;17.97;;;2.60;49.00;;;;;;5048228;28;20435;-74
2022/12/12 10:32:05;;;;;;;32.42;17.70;;;2.60;50.00;;;;;;5047986;28;20383;-74
2022/12/12 10:35:12;;;;;;;34.55;17.60;;;2.60;48.20;;;;;;5043048;28;20379;-74
2022/12/12 10:37:59;;;;;;;40.17;17.90;;;2.60;48.40;;;;;;5037071;28;20395;-75
2022/12/12 10:40:45;;;;;;;33.63;18.08;;;2.60;48.10;;;;;;5034142;28;20448;-74
2022/12/12 10:43:26;;;;;;;42.67;19.70;;;2.60;49.50;;;;;;5029557;28;20403;-75
2022/12/12 10:46:19;;;;;;;35.70;17.95;;;2.80;49.30;;;;;;5030274;28;20468;-75
2022/12/12 10:48:47;;;;;;;33.78;17.42;;;2.80;47.00;;;;;;5031719;28;20380;-75
2022/12/12 10:51:16;;;;;;;32.08;17.70;;;2.80;46.40;;;;;;5030269;28;20391;-74
2022/12/12 10:53:43;;;;;;;34.85;18.75;;;2.90;45.00;;;;;;5030063;28;20446;-75
2022/12/12 10:56:22;;;;;;;33.65;17.40;;;2.90;46.40;;;;;;5033045;28;20390;-74
2022/12/12 10:58:53;;;;;;;32.95;18.05;;;2.90;46.50;;;;;;5032483;28;20394;-75
2022/12/12 11:01:25;;;;;;;32.22;17.38;;;2.90;45.80;;;;;;5030941;28;20859;-75
2022/12/12 11:03:52;;;;;;;31.73;18.50;;;2.90;44.10;;;;;;5030989;28;20390;-74
2022/12/12 11:06:37;;;;;;;36.53;17.42;;;3.00;44.70;;;;;;5031372;28;20417;-74
2022/12/12 11:09:18;;;;;;;30.52;17.65;;;3.00;43.70;;;;;;5029315;28;20395;-74
2022/12/12 11:12:09;;;;;;;36.73;18.80;;;3.10;43.00;;;;;;5028560;28;20394;-75
2022/12/12 11:15:01;;;;;;;34.30;18.90;;;3.10;43.40;;;;;;5031228;28;20955;-75
2022/12/12 11:17:29;;;;;;;34.15;19.55;;;3.20;43.40;;;;;;5030921;28;20880;-75
2022/12/12 11:20:00;;;;;;;32.35;18.17;;;3.20;44.00;;;;;;5030906;28;20383;-75
2022/12/12 11:22:29;;;;;;;30.15;18.15;;;3.30;44.30;;;;;;5030468;28;20387;-75
2022/12/12 11:24:55;;;;;;;37.72;19.15;;;3.30;42.70;;;;;;5033877;28;20475;-75
2022/12/12 11:27:26;;;;;;;45.95;19.60;;;3.30;43.60;;;;;;5051168;28;20410;-75
2022/12/12 11:29:56;;;;;;;36.35;18.92;;;3.30;43.00;;;;;;5053915;28;20403;-73
2022/12/12 11:32:30;;;;;;;37.88;18.63;;;3.40;41.30;;;;;;5052075;28;20779;-74
2022/12/12 11:35:01;;;;;;;37.00;17.85;;;3.60;42.00;;;;;;5033909;28;20473;-74
2022/12/12 11:37:36;;;;;;;35.95;18.30;;;3.50;40.40;;;;;;5034096;28;20430;-75
2022/12/12 11:40:03;;;;;;;37.60;17.50;;;3.50;38.30;;;;;;5016190;28;20423;-74
2022/12/12 11:42:31;;;;;;;36.13;18.27;;;3.50;38.00;;;;;;5034109;28;20444;-75
2022/12/12 11:45:09;;;;;;;35.40;18.33;;;3.40;37.60;;;;;;5036768;28;20879;-75
2022/12/12 11:47:43;;;;;;;33.40;17.80;;;3.50;38.40;;;;;;5035838;28;20409;-74
2022/12/12 11:50:28;;;;;;;41.58;19.48;;;3.50;38.20;;;;;;5036855;28;20403;-74
2022/12/12 11:53:06;;;;;;;38.67;17.98;;;3.40;38.20;;;;;;5039173;28;20406;-75
2022/12/12 11:55:56;;;;;;;34.10;17.92;;;3.40;39.30;;;;;;5037756;28;20391;-76
2022/12/12 11:58:35;;;;;;;37.03;17.52;;;3.50;39.60;;;;;;5037482;28;20395;-75
2022/12/12 12:01:16;;;;;;;33.97;18.88;;;3.50;37.90;;;;;;5035249;28;20756;-74
2022/12/12 12:04:00;;;;;;;34.33;19.13;;;3.50;38.80;;;;;;5037715;28;20450;-74
2022/12/12 12:06:29;;;;;;;34.95;19.30;;;3.70;41.30;;;;;;5036983;28;20409;-74
2022/12/12 12:09:06;;;;;;;34.25;18.90;;;3.80;39.30;;;;;;5038886;28;20478;-76
2022/12/12 12:11:46;;;;;;;34.08;18.10;;;3.70;39.70;;;;;;5036252;28;20399;-74
2022/12/12 12:14:21;;;;;;;30.48;17.17;;;3.60;38.60;;;;;;5034305;28;20391;-76
2022/12/12 12:17:08;;;;;;;30.63;17.17;;;3.60;37.60;;;;;;5036145;28;20414;-74
2022/12/12 12:20:00;;;;;;;30.40;17.00;;;3.50;37.10;;;;;;5035688;28;20391;-75
2022/12/12 12:23:07;;;;;;;33.00;17.02;;;3.50;36.80;;;;;;5035658;28;20906;-75
2022/12/12 12:26:20;;;;;;;35.70;17.60;;;3.50;36.80;;;;;;5013578;28;20491;-75
2022/12/12 12:29:00;;;;;;;33.25;16.27;;;3.50;37.90;;;;;;5026862;28;20402;-75
2022/12/12 12:31:39;;;;;;;39.20;19.15;;;3.50;38.60;;;;;;5035117;28;20402;-74
2022/12/12 12:34:50;;;;;;;32.67;16.55;;;3.60;38.20;;;;;;5037541;28;20383;-76
2022/12/12 12:38:09;;;;;;;26.52;15.48;;;3.60;38.00;;;;;;5037976;28;20395;-74
2022/12/12 12:41:14;;;;;;;30.65;16.40;;;3.50;37.50;;;;;;5016055;28;20416;-74
2022/12/12 12:44:10;;;;;;;31.42;16.00;;;3.50;37.40;;;;;;5018063;28;20790;-75
2022/12/12 12:46:48;;;;;;;38.83;17.47;;;3.50;37.00;;;;;;5047495;28;20482;-75
2022/12/12 12:49:20;;;;;;;33.03;16.80;;;3.60;38.10;;;;;;5046934;28;20405;-75
2022/12/12 12:51:53;;;;;;;29.00;16.00;;;3.60;36.90;;;;;;5043700;28;20413;-75
2022/12/12 12:54:47;;;;;;;30.42;16.38;;;3.50;36.40;;;;;;5043097;28;20390;-77
2022/12/12 12:57:26;;;;;;;32.25;17.45;;;3.50;36.80;;;;;;5035737;28;20399;-75
2022/12/12 13:00:00;;;;;;;30.40;16.48;;;3.50;37.60;;;;;;5037662;28;20402;-75
2022/12/12 13:02:29;;;;;;;26.27;14.65;;;3.50;37.50;;;;;;5035361;28;20384;-74
2022/12/12 13:04:54;;;;;;;27.73;15.88;;;3.50;36.10;;;;;;5037767;28;20418;-76
2022/12/12 13:07:34;;;;;;;26.10;15.33;;;3.50;36.00;;;;;;5037790;28;20906;-76
2022/12/12 13:10:07;;;;;;;28.00;15.77;;;3.40;36.80;;;;;;5037646;28;20395;-75
2022/12/12 13:12:40;;;;;;;31.83;16.02;;;3.40;37.00;;;;;;5039533;28;20378;-74
2022/12/12 13:15:33;;;;;;;31.95;16.00;;;3.40;37.30;;;;;;5037193;28;20406;-74
2022/12/12 13:18:05;;;;;;;26.58;15.70;;;3.40;37.10;;;;;;5028065;28;20470;-76